createdAt,value
2023-07-30T00:00:51.559Z,101047.63
2023-07-30T00:03:18.386Z,101041.03
2023-07-30T00:05:55.680Z,101047.91
2023-07-30T00:08:22.849Z,101048.00
2023-07-30T00:10:49.887Z,101051.69
2023-07-30T00:13:16.611Z,101055.47
2023-07-30T00:15:43.185Z,101055.03
2023-07-30T00:18:09.735Z,101058.41
2023-07-30T00:20:37.256Z,101048.28
2023-07-30T00:23:04.042Z,101063.75
2023-07-30T00:25:30.707Z,101057.84
2023-07-30T00:27:57.427Z,101053.63
2023-07-30T00:30:24.124Z,101060.94
2023-07-30T00:32:50.714Z,101057.28
2023-07-30T00:35:17.345Z,101052.50
2023-07-30T00:37:43.996Z,101062.09
2023-07-30T00:40:11.123Z,101055.47
2023-07-30T00:42:37.843Z,101054.47
2023-07-30T00:45:05.754Z,101056.31
2023-07-30T00:47:32.579Z,101053.06
2023-07-30T00:49:59.647Z,101049.41
2023-07-30T00:52:27.160Z,101052.06
2023-07-30T00:54:57.979Z,101046.69
2023-07-30T00:57:24.877Z,101045.72
2023-07-30T00:59:52.189Z,101053.63
2023-07-30T01:02:18.994Z,101046.84
2023-07-30T01:04:45.718Z,101043.19
2023-07-30T01:07:12.641Z,101052.75
2023-07-30T01:09:39.568Z,101053.31
2023-07-30T01:12:07.233Z,101063.75
2023-07-30T01:14:34.888Z,101060.94
2023-07-30T01:17:01.488Z,101057.72
2023-07-30T01:19:28.026Z,101054.75
2023-07-30T01:21:54.519Z,101064.59
2023-07-30T01:24:21.029Z,101064.84
2023-07-30T01:26:54.529Z,101066.81
2023-07-30T01:29:28.677Z,101065.84
2023-07-30T01:32:05.348Z,101073.59
2023-07-30T01:34:36.749Z,101072.03
2023-07-30T01:37:05.740Z,101074.72
2023-07-30T01:39:33.884Z,101078.09
2023-07-30T01:42:00.403Z,101074.16
2023-07-30T01:44:26.955Z,101071.34
2023-07-30T01:46:53.595Z,101078.13
2023-07-30T01:49:20.094Z,101073.75
2023-07-30T01:51:47.044Z,101072.22
2023-07-30T01:54:13.564Z,101071.97
2023-07-30T01:56:40.321Z,101061.97
2023-07-30T01:59:06.950Z,101071.72
2023-07-30T02:01:33.674Z,101078.47
2023-07-30T02:04:00.437Z,101080.97
2023-07-30T02:06:27.013Z,101081.81
2023-07-30T02:08:53.503Z,101079.00
2023-07-30T02:11:20.093Z,101079.84
2023-07-30T02:13:46.759Z,101081.25
2023-07-30T02:16:13.326Z,101079.59
2023-07-30T02:18:39.835Z,101086.59
2023-07-30T02:21:06.342Z,101070.56
2023-07-30T02:23:32.854Z,101075.91
2023-07-30T02:25:59.357Z,101085.78
2023-07-30T02:28:26.057Z,101078.59
2023-07-30T02:30:52.729Z,101075.22
2023-07-30T02:33:19.323Z,101076.47
2023-07-30T02:35:45.845Z,101072.00
2023-07-30T02:38:12.316Z,101078.47
2023-07-30T02:40:38.954Z,101075.09
2023-07-30T02:43:05.721Z,101070.84
2023-07-30T02:45:32.260Z,101066.63
2023-07-30T02:47:58.797Z,101067.47
2023-07-30T02:50:25.414Z,101070.28
2023-07-30T02:52:52.087Z,101068.31
2023-07-30T02:55:19.685Z,101057.63
2023-07-30T02:57:46.484Z,101058.69
2023-07-30T03:00:13.812Z,101067.97
2023-07-30T03:02:41.564Z,101069.09
2023-07-30T03:05:08.447Z,101070.94
2023-07-30T03:07:34.897Z,101070.09
2023-07-30T03:10:01.485Z,101059.84
2023-07-30T03:12:28.052Z,101061.78
2023-07-30T03:14:54.576Z,101067.41
2023-07-30T03:17:21.137Z,101066.56
2023-07-30T03:19:47.873Z,101065.97
2023-07-30T03:22:14.434Z,101071.44
2023-07-30T03:24:40.981Z,101066.81
2023-07-30T03:27:07.678Z,101067.38
2023-07-30T03:29:34.205Z,101064.56
2023-07-30T03:32:00.680Z,101075.25
2023-07-30T03:34:27.201Z,101077.09
2023-07-30T03:36:53.767Z,101074.28
2023-07-30T03:39:20.283Z,101071.75
2023-07-30T03:41:46.838Z,101074.81
2023-07-30T03:44:13.319Z,101083.41
2023-07-30T03:46:39.902Z,101085.34
2023-07-30T03:49:06.471Z,101084.66
2023-07-30T03:51:33.352Z,101081.41
2023-07-30T03:54:00.020Z,101088.44
2023-07-30T03:56:26.590Z,101085.94
2023-07-30T03:58:53.054Z,101082.53
2023-07-30T04:01:19.643Z,101085.22
2023-07-30T04:03:46.230Z,101086.19
2023-07-30T04:06:12.888Z,101083.09
2023-07-30T04:08:39.434Z,101089.88
2023-07-30T04:11:06.186Z,101075.78
2023-07-30T04:13:32.778Z,101082.84
2023-07-30T04:15:59.390Z,101088.75
2023-07-30T04:18:26.011Z,101085.94
2023-07-30T04:20:57.087Z,101080.88
2023-07-30T04:23:23.834Z,101085.81
2023-07-30T04:25:51.401Z,101094.41
2023-07-30T04:28:18.427Z,101091.31
2023-07-30T04:30:45.648Z,101093.72
2023-07-30T04:33:12.286Z,101098.38
2023-07-30T04:35:38.757Z,101093.59
2023-07-30T04:38:05.262Z,101098.28
2023-07-30T04:40:31.779Z,101101.25
2023-07-30T04:42:58.292Z,101107.03
2023-07-30T04:45:24.842Z,101110.84
2023-07-30T04:47:51.429Z,101105.22
2023-07-30T04:50:18.013Z,101105.63
2023-07-30T04:52:44.522Z,101107.03
2023-07-30T04:55:11.024Z,101111.25
2023-07-30T04:57:37.536Z,101113.69
2023-07-30T05:00:04.540Z,101116.75
2023-07-30T05:02:31.283Z,101114.97
2023-07-30T05:04:57.828Z,101122.38
2023-07-30T05:07:24.578Z,101120.03
2023-07-30T05:09:51.049Z,101120.44
2023-07-30T05:12:17.630Z,101117.06
2023-07-30T05:14:44.162Z,101115.34
2023-07-30T05:17:10.671Z,101116.75
2023-07-30T05:19:37.178Z,101125.75
2023-07-30T05:22:03.880Z,101119.84
2023-07-30T05:24:30.338Z,101118.25
2023-07-30T05:26:56.802Z,101126.72
2023-07-30T05:29:23.414Z,101131.66
2023-07-30T05:31:50.162Z,101130.94
2023-07-30T05:34:16.847Z,101119.94
2023-07-30T05:36:43.530Z,101122.34
2023-07-30T05:39:10.054Z,101115.00
2023-07-30T05:41:36.923Z,101126.13
2023-07-30T05:44:03.774Z,101123.13
2023-07-30T05:46:30.522Z,101126.22
2023-07-30T05:48:57.170Z,101127.63
2023-07-30T05:51:23.803Z,101123.34
2023-07-30T05:53:50.370Z,101118.56
2023-07-30T05:56:19.467Z,101127.16
2023-07-30T05:58:46.469Z,101125.41
2023-07-30T06:01:13.108Z,101124.69
2023-07-30T06:03:39.693Z,101128.47
2023-07-30T06:06:06.193Z,101130.88
2023-07-30T06:08:32.796Z,101129.41
2023-07-30T06:11:04.426Z,101125.72
2023-07-30T06:13:31.218Z,101124.84
2023-07-30T06:15:57.782Z,101126.81
2023-07-30T06:18:24.392Z,101134.50
2023-07-30T06:20:50.936Z,101129.13
2023-07-30T06:23:17.442Z,101121.91
2023-07-30T06:25:43.951Z,101122.84
2023-07-30T06:28:10.528Z,101127.63
2023-07-30T06:30:37.881Z,101137.88
2023-07-30T06:33:04.408Z,101129.00
2023-07-30T06:35:30.920Z,101134.59
2023-07-30T06:37:57.440Z,101133.97
2023-07-30T06:40:24.492Z,101130.22
2023-07-30T06:42:51.025Z,101132.59
2023-07-30T06:45:17.828Z,101130.16
2023-07-30T06:47:44.385Z,101134.44
2023-07-30T06:50:11.281Z,101129.41
2023-07-30T06:52:38.180Z,101124.41
2023-07-30T06:55:05.023Z,101127.78
2023-07-30T06:57:31.588Z,101129.94
2023-07-30T06:59:59.176Z,101120.94
2023-07-30T07:02:25.787Z,101121.25
2023-07-30T07:04:52.567Z,101122.94
2023-07-30T07:07:19.219Z,101123.72
2023-07-30T07:09:45.759Z,101129.78
2023-07-30T07:12:12.355Z,101144.03
2023-07-30T07:14:40.279Z,101133.06
2023-07-30T07:17:06.944Z,101131.66
2023-07-30T07:19:37.466Z,101139.50
2023-07-30T07:22:05.671Z,101140.66
2023-07-30T07:24:32.423Z,101152.91
2023-07-30T07:26:59.308Z,101147.16
2023-07-30T07:29:26.052Z,101142.50
2023-07-30T07:31:52.582Z,101142.34
2023-07-30T07:34:19.104Z,101154.53
2023-07-30T07:36:45.639Z,101137.69
2023-07-30T07:39:12.588Z,101142.25
2023-07-30T07:41:39.500Z,101143.22
2023-07-30T07:44:06.209Z,101139.84
2023-07-30T07:46:32.816Z,101151.28
2023-07-30T07:48:59.875Z,101145.00
2023-07-30T07:51:26.711Z,101150.47
2023-07-30T07:53:53.654Z,101144.50
2023-07-30T07:56:20.429Z,101140.78
2023-07-30T07:58:47.112Z,101140.97
2023-07-30T08:01:13.650Z,101150.63
2023-07-30T08:03:40.323Z,101152.91
2023-07-30T08:06:07.346Z,101149.97
2023-07-30T08:08:33.979Z,101146.59
2023-07-30T08:11:06.804Z,101149.75
2023-07-30T08:13:33.401Z,101154.28
2023-07-30T08:16:00.091Z,101148.44
2023-07-30T08:18:28.696Z,101146.38
2023-07-30T08:20:55.379Z,101144.63
2023-07-30T08:23:21.911Z,101136.38
2023-07-30T08:25:48.567Z,101144.72
2023-07-30T08:28:15.167Z,101143.00
2023-07-30T08:30:41.818Z,101135.19
2023-07-30T08:33:08.364Z,101142.22
2023-07-30T08:35:35.020Z,101138.63
2023-07-30T08:38:01.718Z,101136.47
2023-07-30T08:40:28.377Z,101135.84
2023-07-30T08:42:55.287Z,101144.69
2023-07-30T08:45:22.213Z,101139.53
2023-07-30T08:47:49.390Z,101147.09
2023-07-30T08:50:16.159Z,101141.13
2023-07-30T08:52:43.727Z,101147.91
2023-07-30T08:55:11.487Z,101150.09
2023-07-30T08:57:39.069Z,101152.75
2023-07-30T09:00:12.473Z,101155.50
2023-07-30T09:02:44.382Z,101144.53
2023-07-30T09:05:12.923Z,101154.13
2023-07-30T09:07:39.483Z,101148.72
2023-07-30T09:10:06.536Z,101149.38
2023-07-30T09:12:34.896Z,101162.25
2023-07-30T09:15:04.321Z,101148.59
2023-07-30T09:17:30.866Z,101150.78
2023-07-30T09:20:00.539Z,101157.03
2023-07-30T09:22:28.487Z,101165.44
2023-07-30T09:24:56.266Z,101165.59
2023-07-30T09:27:26.254Z,101177.22
2023-07-30T09:29:54.426Z,101167.59
2023-07-30T09:32:22.082Z,101169.63
2023-07-30T09:34:49.214Z,101175.00
2023-07-30T09:37:16.228Z,101176.31
2023-07-30T09:39:42.960Z,101179.03
2023-07-30T09:42:09.537Z,101185.44
2023-07-30T09:44:39.054Z,101196.25
2023-07-30T09:47:07.329Z,101189.34
2023-07-30T09:49:34.239Z,101191.56
2023-07-30T09:52:01.292Z,101189.53
2023-07-30T09:54:27.958Z,101202.59
2023-07-30T09:56:54.533Z,101203.50
2023-07-30T09:59:21.097Z,101198.56
2023-07-30T10:01:54.523Z,101208.22
2023-07-30T10:04:21.873Z,101209.88
2023-07-30T10:07:06.135Z,101214.03
2023-07-30T10:09:36.503Z,101213.59
2023-07-30T10:12:04.831Z,101214.66
2023-07-30T10:14:31.598Z,101224.53
2023-07-30T10:17:01.750Z,101207.72
2023-07-30T10:19:29.710Z,101203.31
2023-07-30T10:22:19.586Z,101212.69
2023-07-30T10:25:08.674Z,101212.13
2023-07-30T10:27:40.809Z,101207.53
2023-07-30T10:30:13.037Z,101211.84
2023-07-30T10:32:58.759Z,101215.94
2023-07-30T10:35:47.198Z,101215.00
2023-07-30T10:38:15.548Z,101225.38
2023-07-30T10:40:42.412Z,101211.09
2023-07-30T10:43:18.728Z,101210.47
2023-07-30T10:45:52.023Z,101219.66
2023-07-30T10:48:19.079Z,101208.53
2023-07-30T10:50:49.655Z,101224.66
2023-07-30T10:53:17.581Z,101232.94
2023-07-30T10:55:44.248Z,101221.63
2023-07-30T10:58:11.432Z,101225.63
2023-07-30T11:00:39.090Z,101220.53
2023-07-30T11:03:05.710Z,101217.03
2023-07-30T11:05:32.318Z,101224.38
2023-07-30T11:07:59.004Z,101230.06
2023-07-30T11:10:25.811Z,101232.72
2023-07-30T11:12:52.468Z,101218.34
2023-07-30T11:15:19.131Z,101218.91
2023-07-30T11:17:48.645Z,101242.69
2023-07-30T11:20:28.246Z,101225.13
2023-07-30T11:22:55.133Z,101222.72
2023-07-30T11:25:21.891Z,101244.00
2023-07-30T11:27:49.664Z,101254.34
2023-07-30T11:30:16.297Z,101238.41
2023-07-30T11:32:43.945Z,101256.81
2023-07-30T11:35:10.728Z,101251.31
2023-07-30T11:37:41.002Z,101256.94
2023-07-30T11:40:10.328Z,101257.66
2023-07-30T11:42:37.901Z,101261.69
2023-07-30T11:45:21.176Z,101256.72
2023-07-30T11:47:48.814Z,101250.88
2023-07-30T11:50:16.399Z,101261.50
2023-07-30T11:52:57.313Z,101270.44
2023-07-30T11:55:25.458Z,101259.69
2023-07-30T11:57:52.739Z,101269.13
2023-07-30T12:00:22.537Z,101258.56
2023-07-30T12:02:49.279Z,101262.34
2023-07-30T12:05:17.979Z,101264.94
2023-07-30T12:07:44.563Z,101276.19
2023-07-30T12:10:12.893Z,101264.41
2023-07-30T12:12:46.569Z,101267.69
2023-07-30T12:15:14.012Z,101288.84
2023-07-30T12:17:40.610Z,101299.72
2023-07-30T12:20:07.852Z,101277.59
2023-07-30T12:22:36.414Z,101282.75
2023-07-30T12:25:06.765Z,101281.66
2023-07-30T12:27:33.336Z,101267.72
2023-07-30T12:29:59.829Z,101269.75
2023-07-30T12:32:29.234Z,101273.09
2023-07-30T12:34:56.046Z,101270.16
2023-07-30T12:37:22.918Z,101270.63
2023-07-30T12:39:49.616Z,101280.53
2023-07-30T12:42:16.298Z,101276.16
2023-07-30T12:44:43.961Z,101273.50
2023-07-30T12:47:10.637Z,101276.28
2023-07-30T12:49:37.279Z,101292.38
2023-07-30T12:52:04.042Z,101284.00
2023-07-30T12:54:30.627Z,101280.38
2023-07-30T12:56:57.128Z,101277.13
2023-07-30T12:59:24.027Z,101276.59
2023-07-30T13:01:50.621Z,101282.84
2023-07-30T13:04:18.031Z,101301.22
2023-07-30T13:06:44.657Z,101285.34
2023-07-30T13:09:11.142Z,101295.41
2023-07-30T13:11:38.389Z,101288.00
2023-07-30T13:14:05.302Z,101283.78
2023-07-30T13:16:33.342Z,101279.50
2023-07-30T13:19:00.180Z,101285.19
2023-07-30T13:21:26.728Z,101283.44
2023-07-30T13:23:53.356Z,101295.75
2023-07-30T13:26:20.090Z,101279.59
2023-07-30T13:28:46.605Z,101281.34
2023-07-30T13:31:13.210Z,101291.19
2023-07-30T13:33:39.831Z,101280.34
2023-07-30T13:36:07.233Z,101294.78
2023-07-30T13:38:33.781Z,101302.53
2023-07-30T13:41:00.256Z,101292.84
2023-07-30T13:43:26.803Z,101294.41
2023-07-30T13:45:53.876Z,101300.69
2023-07-30T13:48:21.117Z,101303.59
2023-07-30T13:50:47.737Z,101297.91
2023-07-30T13:53:14.874Z,101287.63
2023-07-30T13:55:41.427Z,101298.97
2023-07-30T13:58:08.166Z,101291.19
2023-07-30T14:00:34.721Z,101296.69
2023-07-30T14:03:01.412Z,101307.63
2023-07-30T14:05:29.599Z,101300.53
2023-07-30T14:07:57.866Z,101300.91
2023-07-30T14:10:25.068Z,101302.94
2023-07-30T14:12:51.686Z,101293.31
2023-07-30T14:15:18.443Z,101308.09
2023-07-30T14:17:45.057Z,101298.91
2023-07-30T14:20:11.901Z,101290.78
2023-07-30T14:22:38.508Z,101297.72
2023-07-30T14:25:05.581Z,101302.47
2023-07-30T14:27:32.353Z,101311.16
2023-07-30T14:29:58.900Z,101312.88
2023-07-30T14:32:25.472Z,101309.25
2023-07-30T14:34:52.019Z,101302.06
2023-07-30T14:37:18.520Z,101303.00
2023-07-30T14:39:45.665Z,101304.31
2023-07-30T14:42:12.344Z,101317.59
2023-07-30T14:44:39.554Z,101313.59
2023-07-30T14:47:06.468Z,101317.88
2023-07-30T14:49:33.064Z,101318.94
2023-07-30T14:51:59.603Z,101312.44
2023-07-30T14:54:26.272Z,101288.22
2023-07-30T14:56:52.935Z,101310.13
2023-07-30T14:59:19.674Z,101283.63
2023-07-30T15:01:46.239Z,101296.09
2023-07-30T15:04:12.782Z,101297.50
2023-07-30T15:06:39.670Z,101285.59
2023-07-30T15:09:06.714Z,101304.84
2023-07-30T15:11:33.236Z,101303.78
2023-07-30T15:13:59.716Z,101304.22
2023-07-30T15:16:26.360Z,101299.41
2023-07-30T15:18:53.040Z,101307.59
2023-07-30T15:21:20.347Z,101312.00
2023-07-30T15:23:47.072Z,101311.25
2023-07-30T15:26:13.661Z,101304.16
2023-07-30T15:28:41.908Z,101304.31
2023-07-30T15:31:08.533Z,101300.94
2023-07-30T15:33:36.562Z,101302.97
2023-07-30T15:36:03.990Z,101306.03
2023-07-30T15:38:30.523Z,101305.03
2023-07-30T15:40:57.041Z,101316.50
2023-07-30T15:43:23.816Z,101318.22
2023-07-30T15:45:53.993Z,101305.25
2023-07-30T15:48:20.793Z,101316.22
2023-07-30T15:50:47.326Z,101307.78
2023-07-30T15:53:13.877Z,101310.81
2023-07-30T15:55:40.352Z,101317.91
2023-07-30T15:58:07.105Z,101317.91
2023-07-30T16:00:34.384Z,101313.69
2023-07-30T16:03:04.992Z,101301.38
2023-07-30T16:05:31.672Z,101303.91
2023-07-30T16:07:58.272Z,101305.06
2023-07-30T16:10:24.808Z,101308.94
2023-07-30T16:12:51.465Z,101310.25
2023-07-30T16:15:18.111Z,101311.44
2023-07-30T16:17:44.709Z,101297.53
2023-07-30T16:20:11.651Z,101307.59
2023-07-30T16:22:38.335Z,101307.19
2023-07-30T16:25:07.724Z,101294.38
2023-07-30T16:27:35.480Z,101291.56
2023-07-30T16:30:02.740Z,101291.72
2023-07-30T16:32:29.281Z,101292.19
2023-07-30T16:34:55.802Z,101270.56
2023-07-30T16:37:23.443Z,101276.41
2023-07-30T16:39:50.228Z,101291.31
2023-07-30T16:42:16.734Z,101294.22
2023-07-30T16:44:43.313Z,101300.09
2023-07-30T16:47:09.882Z,101290.91
2023-07-30T16:49:36.477Z,101295.81
2023-07-30T16:52:02.986Z,101284.34
2023-07-30T16:54:29.509Z,101283.84
2023-07-30T16:56:56.008Z,101281.16
2023-07-30T16:59:22.533Z,101284.88
2023-07-30T17:01:49.003Z,101284.06
2023-07-30T17:04:15.566Z,101295.88
2023-07-30T17:06:42.177Z,101287.28
2023-07-30T17:09:08.776Z,101272.75
2023-07-30T17:11:37.677Z,101284.91
2023-07-30T17:14:04.410Z,101284.06
2023-07-30T17:16:30.958Z,101276.16
2023-07-30T17:18:57.543Z,101273.47
2023-07-30T17:21:24.433Z,101271.03
2023-07-30T17:23:51.003Z,101285.88
2023-07-30T17:26:17.534Z,101278.78
2023-07-30T17:28:44.085Z,101298.28
2023-07-30T17:31:13.872Z,101290.00
2023-07-30T17:33:40.540Z,101288.47
2023-07-30T17:36:09.373Z,101292.78
2023-07-30T17:38:36.439Z,101281.00
2023-07-30T17:41:03.091Z,101291.44
2023-07-30T17:43:30.041Z,101299.75
2023-07-30T17:45:56.638Z,101294.53
2023-07-30T17:48:23.719Z,101290.84
2023-07-30T17:50:50.417Z,101292.38
2023-07-30T17:53:16.942Z,101284.22
2023-07-30T17:55:44.401Z,101282.63
2023-07-30T17:58:11.997Z,101293.38
2023-07-30T18:00:46.310Z,101304.28
2023-07-30T18:03:15.742Z,101306.56
2023-07-30T18:05:48.181Z,101303.88
2023-07-30T18:08:16.340Z,101294.09
2023-07-30T18:10:45.140Z,101279.41
2023-07-30T18:13:12.458Z,101290.09
2023-07-30T18:15:38.958Z,101291.59
2023-07-30T18:18:05.613Z,101303.19
2023-07-30T18:20:32.900Z,101294.63
2023-07-30T18:22:59.596Z,101295.38
2023-07-30T18:25:26.609Z,101291.22
2023-07-30T18:27:53.154Z,101297.88
2023-07-30T18:30:19.800Z,101303.88
2023-07-30T18:32:46.477Z,101297.81
2023-07-30T18:35:13.581Z,101290.66
2023-07-30T18:37:40.205Z,101293.34
2023-07-30T18:40:08.108Z,101296.03
2023-07-30T18:42:36.725Z,101293.50
2023-07-30T18:45:03.883Z,101290.13
2023-07-30T18:47:30.545Z,101289.97
2023-07-30T18:49:57.331Z,101295.88
2023-07-30T18:52:23.891Z,101270.84
2023-07-30T18:54:50.593Z,101283.06
2023-07-30T18:57:17.119Z,101292.88
2023-07-30T18:59:43.716Z,101297.53
2023-07-30T19:02:11.258Z,101280.00
2023-07-30T19:04:37.844Z,101284.13
2023-07-30T19:07:04.630Z,101282.03
2023-07-30T19:09:31.241Z,101283.41
2023-07-30T19:11:57.818Z,101276.66
2023-07-30T19:14:24.363Z,101283.72
2023-07-30T19:16:51.000Z,101283.41
2023-07-30T19:19:17.674Z,101286.56
2023-07-30T19:21:44.404Z,101284.19
2023-07-30T19:24:11.820Z,101286.47
2023-07-30T19:26:38.710Z,101283.53
2023-07-30T19:29:05.389Z,101286.66
2023-07-30T19:31:32.078Z,101283.34
2023-07-30T19:34:11.761Z,101286.94
2023-07-30T19:36:40.018Z,101278.88
2023-07-30T19:39:06.839Z,101285.97
2023-07-30T19:41:33.908Z,101282.38
2023-07-30T19:44:00.644Z,101268.56
2023-07-30T19:46:27.334Z,101269.72
2023-07-30T19:48:54.734Z,101275.78
2023-07-30T19:51:21.885Z,101272.97
2023-07-30T19:53:48.554Z,101263.78
2023-07-30T19:56:15.156Z,101266.34
2023-07-30T19:58:41.705Z,101263.09
2023-07-30T20:01:08.373Z,101270.63
2023-07-30T20:03:34.892Z,101272.59
2023-07-30T20:06:03.675Z,101271.44
2023-07-30T20:08:30.524Z,101269.59
2023-07-30T20:10:58.474Z,101268.63
2023-07-30T20:13:25.439Z,101258.63
2023-07-30T20:15:53.160Z,101260.91
2023-07-30T20:18:19.766Z,101264.56
2023-07-30T20:20:46.392Z,101261.34
2023-07-30T20:23:13.230Z,101257.09
2023-07-30T20:25:40.169Z,101256.13
2023-07-30T20:28:08.249Z,101252.03
2023-07-30T20:30:36.311Z,101252.75
2023-07-30T20:33:03.295Z,101249.66
2023-07-30T20:35:30.060Z,101254.00
2023-07-30T20:38:00.282Z,101260.38
2023-07-30T20:40:28.004Z,101257.69
2023-07-30T20:42:55.693Z,101261.78
2023-07-30T20:45:23.599Z,101265.44
2023-07-30T20:47:51.459Z,101263.03
2023-07-30T20:50:19.088Z,101247.84
2023-07-30T20:52:49.021Z,101249.47
2023-07-30T20:55:17.098Z,101249.34
2023-07-30T20:57:43.799Z,101245.81
2023-07-30T21:00:11.354Z,101254.41
2023-07-30T21:02:38.889Z,101255.84
2023-07-30T21:05:06.168Z,101248.50
2023-07-30T21:07:32.825Z,101248.34
2023-07-30T21:09:59.414Z,101242.84
2023-07-30T21:12:26.141Z,101240.47
2023-07-30T21:14:52.713Z,101236.78
2023-07-30T21:17:20.313Z,101237.50
2023-07-30T21:19:47.808Z,101241.75
2023-07-30T21:22:14.468Z,101231.28
2023-07-30T21:24:41.194Z,101226.50
2023-07-30T21:27:08.577Z,101225.78
2023-07-30T21:29:35.233Z,101222.56
2023-07-30T21:32:01.933Z,101209.59
2023-07-30T21:34:28.555Z,101213.97
2023-07-30T21:36:55.072Z,101219.56
2023-07-30T21:39:21.653Z,101215.94
2023-07-30T21:41:48.330Z,101215.34
2023-07-30T21:44:14.859Z,101217.63
2023-07-30T21:46:41.941Z,101199.00
2023-07-30T21:49:09.005Z,101199.56
2023-07-30T21:51:35.588Z,101194.06
2023-07-30T21:54:02.143Z,101195.88
2023-07-30T21:56:28.683Z,101206.84
2023-07-30T21:58:55.292Z,101196.16
2023-07-30T22:01:21.836Z,101209.34
2023-07-30T22:03:48.480Z,101208.53
2023-07-30T22:06:15.032Z,101211.16
2023-07-30T22:08:42.010Z,101198.06
2023-07-30T22:11:08.639Z,101192.97
2023-07-30T22:13:35.231Z,101196.03
2023-07-30T22:16:01.825Z,101198.00
2023-07-30T22:18:28.361Z,101196.56
2023-07-30T22:20:54.877Z,101189.84
2023-07-30T22:23:21.368Z,101194.09
2023-07-30T22:25:48.105Z,101187.28
2023-07-30T22:28:14.634Z,101184.03
2023-07-30T22:30:41.677Z,101179.16
2023-07-30T22:33:08.604Z,101181.66
2023-07-30T22:35:36.436Z,101175.38
2023-07-30T22:38:03.161Z,101159.72
2023-07-30T22:40:30.687Z,101159.72
2023-07-30T22:42:57.393Z,101170.41
2023-07-30T22:45:24.141Z,101166.03
2023-07-30T22:47:50.710Z,101169.41
2023-07-30T22:50:17.396Z,101176.84
2023-07-30T22:52:43.940Z,101171.38
2023-07-30T22:55:10.494Z,101164.06
2023-07-30T22:57:37.130Z,101179.41
2023-07-30T23:00:05.696Z,101164.91
2023-07-30T23:02:32.740Z,101163.66
2023-07-30T23:04:59.375Z,101159.56
2023-07-30T23:07:25.860Z,101161.94
2023-07-30T23:09:52.446Z,101165.19
2023-07-30T23:12:19.166Z,101146.38
2023-07-30T23:14:45.691Z,101153.66
2023-07-30T23:17:12.180Z,101157.44
2023-07-30T23:19:38.862Z,101159.28
2023-07-30T23:22:05.507Z,101156.59
2023-07-30T23:24:33.754Z,101165.63
2023-07-30T23:27:00.267Z,101148.16
2023-07-30T23:29:26.788Z,101150.53
2023-07-30T23:31:54.319Z,101146.03
2023-07-30T23:34:21.050Z,101151.25
2023-07-30T23:36:47.633Z,101138.88
2023-07-30T23:39:14.276Z,101135.81
2023-07-30T23:41:40.790Z,101134.69
2023-07-30T23:44:07.327Z,101126.66
2023-07-30T23:46:33.871Z,101126.44
2023-07-30T23:49:00.411Z,101131.34
2023-07-30T23:51:26.968Z,101124.31
2023-07-30T23:53:54.116Z,101123.22
2023-07-30T23:56:20.830Z,101128.28
2023-07-30T23:58:47.456Z,101120.97
